메인 페이지
METAR-TAF:

METAR-TAF

공항 :

리브르빌, 가봉

위도: 00-27N, 경도: 009-25E, 고도: 12m

현재 날씨관측

예보는 26분 전, 19:00시(UTC)에 발표되었습니다.
남서9kt
온도 27°C
습도 84%
기압 1009 hPa
시정 10km 이상
고도 1200ft 상공 구름 보통

METAR: FOOL 201900Z 23009KT 9999 SCT012 27/24 Q1009 TEMPO BKN010

시각: 20:26 (19:26 UTC)

예보

예보는 2 시간 26분 전, 17:00시(UTC)에 발표되었습니다.
예보 대상 시간: 20일 18시부터 21일 24시까지 (UTC)
서남서8kt
시정 10km 이상
고도 1300ft 상공 구름 보통
고도 3000ft 상공 구름 많음
확률 30% :
일시적
21일 04시부터 21일 07시까지 (UTC)
시정: 4000m
고도 800ft 상공 구름 많음
비, 이슬비
일시적
21일 14시부터 21일 18시까지 (UTC)
고도 1000ft 상공 구름 보통
고도 2000ft 상공 구름 조금, 적란운.
뇌우

TAF: FOOL 201700Z 2018/2124 25008KT 9999 SCT013 BKN030 PROB30 TEMPO 2104/2107 4000 RADZ BKN008 TEMPO 2114/2118 TS SCT010 FEW020CB

4,000개 이상의 공항 관측 자료 및 예보 (METAR 및 TAF 보고).

지도상에서 검색 가능한 기상관측소가 노란 점과 빨간 점으로 표시되어 있습니다.

기상관측소 명을 보려면 표시 위로 마우스를 이동하세요.

날씨 관측과 예보를 보려면 클릭하세요.

지도 변경 : 확대하려면 엑스 표시가 있는 녹색 버튼, 축소하려면 빼기 표시가 있는 녹색 버튼, 다음 페이지의 지도를 보려면 녹색 화살표를 클릭하세요.


METAR-TAF: